Nearby METAR Reports

 

KFNL - Ft Collins/Lovel, Colorado, USA
Distance from station: NW 10mi, 16km
Updated: Thu, 17-Jan-2019 12:56am MST
Clear
Clear
 Wind from calm
Wind: Calm
Temperature: 27°F , -3°C
Dew Point: 21°F , -6°C
Humidity: 80%
Barometer: 30.02 inHg , 1016.6 hPa
Clouds: Clear
Visibility: 10 miles , 16 km
2019/01/17 07:56 KFNL 170756Z AUTO 00000KT 10SM CLR M03/M06 A3002 RMK AO2 SLP179 T10331061 FZRANO PNO $
KGXY - Greeley/Weld, Colorado, USA
Distance from station: ENE 14mi, 23km
Updated: Thu, 17-Jan-2019 12:56am MST
Clear
Clear
 Wind from calm
Wind: Calm
Temperature: 21°F , -6°C
Dew Point: 18°F , -8°C
Humidity: 86%
Barometer: 30.03 inHg , 1016.9 hPa
Clouds: Clear
Visibility: 10 miles , 16 km
2019/01/17 07:56 KGXY 170756Z AUTO 00000KT 10SM CLR M06/M08 A3003 RMK AO2 SLP203 T10561078 FZRANO
 
KLMO - Longmont/Vbrand, Colorado, USA
Distance from station: SW 20mi, 32km
Updated: Thu, 17-Jan-2019 1:35am MST
Clear
Clear
 Wind from W
Wind: W 10 mph , 17 km/h, Gust: 18 mph , 30 km/h
Temperature: 46°F , 8°C
Wind Chill: 41°F , 5°C
Dew Point: 18°F , -8°C
Humidity: 32%
Barometer: 30.03 inHg , 1016.9 hPa
Clouds: Clear
Visibility: 10 miles , 16 km
2019/01/17 08:35 KLMO 170835Z AUTO 26009G16KT 10SM CLR 08/M08 A3003 RMK AO2 T00841080
KEIK - Erie Muni, Colorado, USA
Distance from station: SSW 25mi, 40km
Updated: Thu, 17-Jan-2019 1:36am MST
Clear
Clear
 Wind from WNW
Wind: WNW 9 mph , 15 km/h
Temperature: 37°F , 3°C
Wind Chill: 30°F , -1°C
Dew Point: 23°F , -5°C
Humidity: 56%
Barometer: 30.09 inHg , 1019 hPa
Clouds: Clear
Visibility: 10 miles , 16 km
2019/01/17 08:36 KEIK 170836Z AUTO 29008KT 10SM CLR 03/M05 A3009 RMK AO2 T00301050
 
KBDU - Boulder Muni, Colorado, USA
Distance from station: SW 29mi, 47km
Updated: Thu, 17-Jan-2019 1:30am MST
Clear
Clear
 Wind from N
Wind: N 3 mph , 6 km/h
Temperature: 41°F , 5°C
Dew Point: 19°F , -7°C
Humidity: 42%
Barometer: 30.02 inHg , 1016.6 hPa
Clouds: Clear
Visibility: 10 miles , 16 km
2019/01/17 08:30 KBDU 170830Z AUTO 01003KT 10SM CLR 05/M07 A3002 RMK AO2
KBJC - Broomfield/Jeffc, Colorado, USA
Distance from station: SSW 33mi, 54km
Updated: Thu, 17-Jan-2019 1:30am MST
Clear
Clear
 Wind from WNW
Wind: WNW 9 mph , 15 km/h
Temperature: 39°F , 4°C
Wind Chill: 33°F , 1°C
Dew Point: 21°F , -6°C
Humidity: 48%
Barometer: 30.04 inHg , 1017.3 hPa
Clouds: Clear
Visibility: 10 miles , 16 km
2019/01/17 08:30 KBJC 170830Z AUTO 29008KT 10SM CLR 04/M06 A3004 RMK AO2 PWINO
 
KDEN - Denver (dia), Colorado, USA
Distance from station: SSE 37mi, 59km
Updated: Thu, 17-Jan-2019 12:53am MST
Partly cloudy
Partly cloudy
 Wind from WSW
Wind: WSW 8 mph , 13 km/h
Temperature: 36°F , 2°C
Wind Chill: 30°F , -1°C
Dew Point: 23°F , -5°C
Humidity: 60%
Barometer: 30.02 inHg , 1016.6 hPa
Clouds: Partly cloudy
Visibility: 10 miles , 16 km
Cloud details: Partly cloudy 22000 ft
2019/01/17 07:53 KDEN 170753Z 24007KT 10SM SCT220 02/M05 A3002 RMK AO2 SLP156 T00171050
KFTG - Denver F. Range, Colorado, USA
Distance from station: SSE 43mi, 69km
Updated: Thu, 17-Jan-2019 1:36am MST
Clear
Clear
 Wind from WSW
Wind: WSW 14 mph , 22 km/h
Temperature: 36°F , 2°C
Wind Chill: 27°F , -3°C
Dew Point: 23°F , -5°C
Humidity: 60%
Barometer: 30.04 inHg , 1017.3 hPa
Clouds: Clear
Visibility: 10 miles , 16 km
2019/01/17 08:36 KFTG 170836Z AUTO 24012KT 10SM CLR 02/M05 A3004 RMK AO2 T00211049
 
KBKF - Buckley Angb/Den, Colorado, USA
Distance from station: S 44mi, 71km
Updated: Thu, 17-Jan-2019 12:58am MST
Partly cloudy
Partly cloudy
 Wind from S
Wind: S 7 mph , 11 km/h
Temperature: 32°F , 0°C
Wind Chill: 25°F , -4°C
Dew Point: 23°F , -5°C
Humidity: 69%
Barometer: 30.04 inHg , 1017.3 hPa
Clouds: Partly cloudy
Visibility: 10 miles , 16 km
Cloud details: Partly cloudy 22000 ft
2019/01/17 07:58 KBKF 170758Z 19006KT 10SM SCT220 00/M05 A3004 RMK AO2A SLP160 T10041046
KCAG - Craig, Colorado, USA
Distance from station: ESE 227mi, 365km
Updated: Thu, 17-Jan-2019 12:53am MST
Mostly cloudy
Mostly cloudy
 Wind from calm
Wind: Calm
Temperature: 25°F , -4°C
Dew Point: 21°F , -6°C
Humidity: 86%
Barometer: 30.18 inHg , 1022 hPa
Clouds: Mostly cloudy
Visibility: 10 miles , 16 km
Cloud details: Mostly cloudy 9500 ft
2019/01/17 07:53 KCAG 170753Z AUTO 00000KT 10SM BKN095 M04/M06 A3018 RMK AO2 SLP249 T10391056
 
KHDN - Hayden/Yampa, Colorado, USA
Distance from station: E 211mi, 339km
Updated: Thu, 17-Jan-2019 12:56am MST
Mostly cloudy
Mostly cloudy
 Wind from E
Wind: E 5 mph , 7 km/h
Temperature: 28°F , -2°C
Wind Chill: 22°F , -6°C
Dew Point: 27°F , -3°C
Humidity: 93%
Barometer: 30.19 inHg , 1022.4 hPa
Clouds: Mostly cloudy
Visibility: 10 miles , 16 km
Cloud details: Mostly cloudy 9500 ft
2019/01/17 07:56 KHDN 170756Z AUTO 09004KT 10SM BKN095 M02/M03 A3019 RMK AO2 SLP242 T10221028 FZRANO
KSBS - Steamboat Spring, Colorado, USA
Distance from station: E 186mi, 299km
Updated: Thu, 17-Jan-2019 1:35am MST
Overcast
Overcast
 Wind from calm
Wind: Calm
Temperature: 30°F , -1°C
Dew Point: 30°F , -1°C
Humidity: 100%
Barometer: 30.18 inHg , 1022 hPa
Clouds: Overcast
Visibility: 10 miles , 16 km
Cloud details: Partly cloudy 2300 ft
Mostly cloudy 3600 ft
Overcast 4500 ft
2019/01/17 08:35 KSBS 170835Z AUTO 00000KT 10SM SCT023 BKN036 OVC045 M01/M01 A3018 RMK AO1 T10151015
 
KDWX - Dixon, Wyoming, USA
Distance from station: N 278mi, 447km
Updated: Thu, 17-Jan-2019 1:10am MST
Partly cloudy
Partly cloudy
 Wind from SSW
Wind: SSW 12 mph , 19 km/h
Temperature: 30°F , -1°C
Wind Chill: 20°F , -7°C
Dew Point: 25°F , -4°C
Humidity: 80%
Barometer: 30.18 inHg , 1022 hPa
Clouds: Partly cloudy
Visibility: 10 miles , 16 km
Cloud details: Partly cloudy 9500 ft
2019/01/17 08:10 KDWX 170810Z AUTO 20010KT 10SM SCT095 M01/M04 A3018 RMK AO2 T10151041
KEEO - Meeker, Colorado, USA
Distance from station: SSW 269mi, 433km
Updated: Thu, 17-Jan-2019 12:53am MST
Partly cloudy
Partly cloudy
 Wind from varies
Wind: varies 5 mph , 7 km/h
Temperature: 30°F , -1°C
Wind Chill: 25°F , -4°C
Dew Point: 25°F , -4°C
Humidity: 80%
Barometer: 30.20 inHg , 1022.7 hPa
Clouds: Partly cloudy
Visibility: 10 miles , 16 km
Cloud details: Partly cloudy 8000 ft
2019/01/17 07:53 KEEO 170753Z AUTO VRB04KT 10SM SCT080 M01/M04 A3020 RMK AO2 SLP237 T10061044